sensor_id;sensor_type;location;lat;lon;timestamp;P1;durP1;ratioP1;P2;durP2;ratioP2
40533;SDS011;26233;51.894;10.192;2023-05-17T00:00:34;3.40;;;2.30;;
40533;SDS011;26233;51.894;10.192;2023-05-17T00:03:01;3.17;;;2.30;;
40533;SDS011;26233;51.894;10.192;2023-05-17T00:05:29;2.93;;;2.30;;
40533;SDS011;26233;51.894;10.192;2023-05-17T00:07:55;2.40;;;2.20;;
40533;SDS011;26233;51.894;10.192;2023-05-17T00:10:24;3.40;;;2.60;;
40533;SDS011;26233;51.894;10.192;2023-05-17T00:12:51;2.93;;;2.30;;
40533;SDS011;26233;51.894;10.192;2023-05-17T00:15:18;3.07;;;2.23;;
40533;SDS011;26233;51.894;10.192;2023-05-17T00:17:45;2.33;;;2.07;;
40533;SDS011;26233;51.894;10.192;2023-05-17T00:20:12;3.57;;;2.20;;
40533;SDS011;26233;51.894;10.192;2023-05-17T00:22:39;3.17;;;2.40;;
40533;SDS011;26233;51.894;10.192;2023-05-17T00:25:07;2.50;;;2.10;;
40533;SDS011;26233;51.894;10.192;2023-05-17T00:27:36;2.60;;;2.13;;
40533;SDS011;26233;51.894;10.192;2023-05-17T00:30:03;3.03;;;2.30;;
40533;SDS011;26233;51.894;10.192;2023-05-17T00:32:31;3.43;;;2.03;;
40533;SDS011;26233;51.894;10.192;2023-05-17T00:34:58;2.50;;;2.30;;
40533;SDS011;26233;51.894;10.192;2023-05-17T00:37:25;4.10;;;2.10;;
40533;SDS011;26233;51.894;10.192;2023-05-17T00:39:52;2.70;;;2.50;;
40533;SDS011;26233;51.894;10.192;2023-05-17T00:42:19;2.67;;;2.00;;
40533;SDS011;26233;51.894;10.192;2023-05-17T00:44:48;2.93;;;2.33;;
40533;SDS011;26233;51.894;10.192;2023-05-17T00:47:15;2.80;;;2.30;;
40533;SDS011;26233;51.894;10.192;2023-05-17T00:49:42;4.93;;;2.50;;
40533;SDS011;26233;51.894;10.192;2023-05-17T00:52:10;2.87;;;2.30;;
40533;SDS011;26233;51.894;10.192;2023-05-17T00:54:37;3.47;;;2.37;;
40533;SDS011;26233;51.894;10.192;2023-05-17T00:57:04;3.33;;;2.00;;
40533;SDS011;26233;51.894;10.192;2023-05-17T00:59:32;4.47;;;2.50;;
40533;SDS011;26233;51.894;10.192;2023-05-17T01:02:02;3.63;;;2.30;;
40533;SDS011;26233;51.894;10.192;2023-05-17T01:04:30;3.27;;;2.27;;
40533;SDS011;26233;51.894;10.192;2023-05-17T01:06:57;2.90;;;2.60;;
40533;SDS011;26233;51.894;10.192;2023-05-17T01:09:24;2.90;;;2.40;;
40533;SDS011;26233;51.894;10.192;2023-05-17T01:11:53;2.87;;;2.07;;
40533;SDS011;26233;51.894;10.192;2023-05-17T01:14:30;2.53;;;1.93;;
40533;SDS011;26233;51.894;10.192;2023-05-17T01:17:11;2.63;;;1.80;;
40533;SDS011;26233;51.894;10.192;2023-05-17T01:19:50;3.30;;;2.50;;
40533;SDS011;26233;51.894;10.192;2023-05-17T01:22:28;3.10;;;2.13;;
40533;SDS011;26233;51.894;10.192;2023-05-17T01:25:13;3.10;;;2.17;;
40533;SDS011;26233;51.894;10.192;2023-05-17T01:27:56;2.03;;;1.73;;
40533;SDS011;26233;51.894;10.192;2023-05-17T01:30:27;3.03;;;2.10;;
40533;SDS011;26233;51.894;10.192;2023-05-17T01:32:56;2.87;;;2.07;;
40533;SDS011;26233;51.894;10.192;2023-05-17T01:35:26;3.03;;;2.13;;
40533;SDS011;26233;51.894;10.192;2023-05-17T01:37:53;3.17;;;2.37;;
40533;SDS011;26233;51.894;10.192;2023-05-17T01:40:20;3.23;;;2.17;;
40533;SDS011;26233;51.894;10.192;2023-05-17T01:42:48;3.37;;;2.10;;
40533;SDS011;26233;51.894;10.192;2023-05-17T01:45:22;2.50;;;2.13;;
40533;SDS011;26233;51.894;10.192;2023-05-17T01:50:41;2.67;;;2.30;;
40533;SDS011;26233;51.894;10.192;2023-05-17T01:53:09;2.77;;;2.07;;
40533;SDS011;26233;51.894;10.192;2023-05-17T01:55:45;2.47;;;2.00;;
40533;SDS011;26233;51.894;10.192;2023-05-17T01:58:17;3.10;;;2.30;;
40533;SDS011;26233;51.894;10.192;2023-05-17T02:00:48;3.05;;;2.13;;
40533;SDS011;26233;51.894;10.192;2023-05-17T02:03:18;2.30;;;2.10;;
40533;SDS011;26233;51.894;10.192;2023-05-17T02:05:46;3.30;;;2.00;;
40533;SDS011;26233;51.894;10.192;2023-05-17T02:08:13;2.33;;;2.00;;
40533;SDS011;26233;51.894;10.192;2023-05-17T02:10:40;4.50;;;2.42;;
40533;SDS011;26233;51.894;10.192;2023-05-17T02:13:07;3.10;;;2.20;;
40533;SDS011;26233;51.894;10.192;2023-05-17T02:15:34;2.70;;;1.97;;
40533;SDS011;26233;51.894;10.192;2023-05-17T02:18:03;3.67;;;2.15;;
40533;SDS011;26233;51.894;10.192;2023-05-17T02:20:30;4.23;;;2.00;;
40533;SDS011;26233;51.894;10.192;2023-05-17T02:22:57;2.25;;;1.95;;
40533;SDS011;26233;51.894;10.192;2023-05-17T02:25:24;4.17;;;2.43;;
40533;SDS011;26233;51.894;10.192;2023-05-17T02:27:51;2.80;;;2.17;;
40533;SDS011;26233;51.894;10.192;2023-05-17T02:30:18;3.70;;;2.37;;
40533;SDS011;26233;51.894;10.192;2023-05-17T02:32:47;4.50;;;2.37;;
40533;SDS011;26233;51.894;10.192;2023-05-17T02:35:15;3.60;;;2.10;;
40533;SDS011;26233;51.894;10.192;2023-05-17T02:37:42;3.80;;;2.10;;
40533;SDS011;26233;51.894;10.192;2023-05-17T02:40:09;3.00;;;1.83;;
40533;SDS011;26233;51.894;10.192;2023-05-17T02:42:37;2.97;;;1.83;;
40533;SDS011;26233;51.894;10.192;2023-05-17T02:45:05;3.93;;;2.37;;
40533;SDS011;26233;51.894;10.192;2023-05-17T02:47:33;3.13;;;2.30;;
40533;SDS011;26233;51.894;10.192;2023-05-17T02:50:00;3.33;;;2.27;;
40533;SDS011;26233;51.894;10.192;2023-05-17T02:52:28;3.20;;;2.22;;
40533;SDS011;26233;51.894;10.192;2023-05-17T02:54:55;3.17;;;2.15;;
40533;SDS011;26233;51.894;10.192;2023-05-17T02:57:22;2.77;;;2.07;;
40533;SDS011;26233;51.894;10.192;2023-05-17T02:59:49;3.33;;;2.33;;
40533;SDS011;26233;51.894;10.192;2023-05-17T03:02:16;4.43;;;1.90;;
40533;SDS011;26233;51.894;10.192;2023-05-17T03:04:43;5.03;;;2.50;;
40533;SDS011;26233;51.894;10.192;2023-05-17T03:07:10;3.33;;;1.90;;
40533;SDS011;26233;51.894;10.192;2023-05-17T03:09:38;5.03;;;2.27;;
40533;SDS011;26233;51.894;10.192;2023-05-17T03:12:06;2.70;;;2.13;;
40533;SDS011;26233;51.894;10.192;2023-05-17T03:14:35;4.13;;;2.50;;
40533;SDS011;26233;51.894;10.192;2023-05-17T03:17:02;4.17;;;2.50;;
40533;SDS011;26233;51.894;10.192;2023-05-17T03:19:29;3.67;;;2.08;;
40533;SDS011;26233;51.894;10.192;2023-05-17T03:21:56;3.58;;;2.05;;
40533;SDS011;26233;51.894;10.192;2023-05-17T03:24:23;4.10;;;2.25;;
40533;SDS011;26233;51.894;10.192;2023-05-17T03:26:52;2.90;;;2.27;;
40533;SDS011;26233;51.894;10.192;2023-05-17T03:29:19;2.50;;;2.08;;
40533;SDS011;26233;51.894;10.192;2023-05-17T03:31:46;3.33;;;2.20;;
40533;SDS011;26233;51.894;10.192;2023-05-17T03:34:13;2.13;;;1.87;;
40533;SDS011;26233;51.894;10.192;2023-05-17T03:36:40;2.87;;;2.27;;
40533;SDS011;26233;51.894;10.192;2023-05-17T03:39:09;4.50;;;2.08;;
40533;SDS011;26233;51.894;10.192;2023-05-17T03:41:36;3.33;;;2.10;;
40533;SDS011;26233;51.894;10.192;2023-05-17T03:44:04;3.63;;;2.37;;
40533;SDS011;26233;51.894;10.192;2023-05-17T03:46:31;3.50;;;2.27;;
40533;SDS011;26233;51.894;10.192;2023-05-17T03:49:00;3.03;;;2.30;;
40533;SDS011;26233;51.894;10.192;2023-05-17T03:51:27;3.22;;;2.42;;
40533;SDS011;26233;51.894;10.192;2023-05-17T03:53:56;5.00;;;2.58;;
40533;SDS011;26233;51.894;10.192;2023-05-17T03:56:25;5.47;;;2.40;;
40533;SDS011;26233;51.894;10.192;2023-05-17T03:58:52;3.65;;;2.38;;
40533;SDS011;26233;51.894;10.192;2023-05-17T04:01:20;2.78;;;2.20;;
40533;SDS011;26233;51.894;10.192;2023-05-17T04:03:47;3.28;;;2.42;;
40533;SDS011;26233;51.894;10.192;2023-05-17T04:06:14;4.88;;;2.42;;
40533;SDS011;26233;51.894;10.192;2023-05-17T04:08:41;5.05;;;2.67;;
40533;SDS011;26233;51.894;10.192;2023-05-17T04:11:08;3.63;;;2.30;;
40533;SDS011;26233;51.894;10.192;2023-05-17T04:13:37;3.42;;;2.17;;
40533;SDS011;26233;51.894;10.192;2023-05-17T04:16:05;3.78;;;2.55;;
40533;SDS011;26233;51.894;10.192;2023-05-17T04:18:34;4.18;;;2.17;;
40533;SDS011;26233;51.894;10.192;2023-05-17T04:21:03;3.90;;;2.60;;
40533;SDS011;26233;51.894;10.192;2023-05-17T04:23:31;2.97;;;2.25;;
40533;SDS011;26233;51.894;10.192;2023-05-17T04:25:59;4.47;;;2.38;;
40533;SDS011;26233;51.894;10.192;2023-05-17T04:28:26;3.95;;;2.38;;
40533;SDS011;26233;51.894;10.192;2023-05-17T04:30:54;5.07;;;2.90;;
40533;SDS011;26233;51.894;10.192;2023-05-17T04:33:21;3.22;;;2.58;;
40533;SDS011;26233;51.894;10.192;2023-05-17T04:35:52;3.97;;;2.65;;
40533;SDS011;26233;51.894;10.192;2023-05-17T04:38:20;4.70;;;2.50;;
40533;SDS011;26233;51.894;10.192;2023-05-17T04:40:48;4.47;;;2.53;;
40533;SDS011;26233;51.894;10.192;2023-05-17T04:43:15;3.22;;;2.47;;
40533;SDS011;26233;51.894;10.192;2023-05-17T04:45:42;4.07;;;2.50;;
40533;SDS011;26233;51.894;10.192;2023-05-17T04:48:10;4.80;;;2.63;;
40533;SDS011;26233;51.894;10.192;2023-05-17T04:50:37;3.90;;;2.40;;
40533;SDS011;26233;51.894;10.192;2023-05-17T04:53:06;6.53;;;2.63;;
40533;SDS011;26233;51.894;10.192;2023-05-17T04:55:33;2.97;;;2.20;;
40533;SDS011;26233;51.894;10.192;2023-05-17T04:58:00;4.22;;;2.45;;
40533;SDS011;26233;51.894;10.192;2023-05-17T05:00:27;3.45;;;2.28;;
40533;SDS011;26233;51.894;10.192;2023-05-17T05:02:54;4.80;;;2.65;;
40533;SDS011;26233;51.894;10.192;2023-05-17T05:05:21;5.03;;;2.50;;
40533;SDS011;26233;51.894;10.192;2023-05-17T05:07:49;3.60;;;2.50;;
40533;SDS011;26233;51.894;10.192;2023-05-17T05:10:18;4.30;;;2.58;;
40533;SDS011;26233;51.894;10.192;2023-05-17T05:12:45;4.43;;;2.55;;
40533;SDS011;26233;51.894;10.192;2023-05-17T05:15:12;3.60;;;2.60;;
40533;SDS011;26233;51.894;10.192;2023-05-17T05:17:39;5.63;;;3.03;;
40533;SDS011;26233;51.894;10.192;2023-05-17T05:20:07;3.50;;;2.40;;
40533;SDS011;26233;51.894;10.192;2023-05-17T05:22:35;4.13;;;2.42;;
40533;SDS011;26233;51.894;10.192;2023-05-17T05:25:02;5.10;;;2.50;;
40533;SDS011;26233;51.894;10.192;2023-05-17T05:27:31;6.68;;;3.03;;
40533;SDS011;26233;51.894;10.192;2023-05-17T05:29:59;5.18;;;2.45;;
40533;SDS011;26233;51.894;10.192;2023-05-17T05:32:26;4.75;;;2.20;;
40533;SDS011;26233;51.894;10.192;2023-05-17T05:34:54;5.10;;;2.42;;
40533;SDS011;26233;51.894;10.192;2023-05-17T05:37:21;3.58;;;2.50;;
40533;SDS011;26233;51.894;10.192;2023-05-17T05:39:48;5.00;;;2.42;;
40533;SDS011;26233;51.894;10.192;2023-05-17T05:42:15;4.65;;;2.30;;
40533;SDS011;26233;51.894;10.192;2023-05-17T05:44:43;4.35;;;2.17;;
40533;SDS011;26233;51.894;10.192;2023-05-17T05:47:10;5.43;;;2.07;;
40533;SDS011;26233;51.894;10.192;2023-05-17T05:49:37;5.22;;;2.33;;
40533;SDS011;26233;51.894;10.192;2023-05-17T05:52:04;4.90;;;2.30;;
40533;SDS011;26233;51.894;10.192;2023-05-17T05:54:32;3.65;;;2.00;;
40533;SDS011;26233;51.894;10.192;2023-05-17T05:56:59;4.50;;;2.00;;
40533;SDS011;26233;51.894;10.192;2023-05-17T05:59:29;4.07;;;1.80;;
40533;SDS011;26233;51.894;10.192;2023-05-17T06:01:57;6.28;;;2.20;;
40533;SDS011;26233;51.894;10.192;2023-05-17T06:04:24;6.43;;;2.10;;
40533;SDS011;26233;51.894;10.192;2023-05-17T06:06:52;4.43;;;1.80;;
40533;SDS011;26233;51.894;10.192;2023-05-17T06:09:20;4.65;;;2.10;;
40533;SDS011;26233;51.894;10.192;2023-05-17T06:11:47;4.15;;;1.83;;
40533;SDS011;26233;51.894;10.192;2023-05-17T06:14:15;4.00;;;2.00;;
40533;SDS011;26233;51.894;10.192;2023-05-17T06:16:42;5.40;;;2.20;;
40533;SDS011;26233;51.894;10.192;2023-05-17T06:19:11;5.38;;;2.40;;
40533;SDS011;26233;51.894;10.192;2023-05-17T06:21:38;3.85;;;1.90;;
40533;SDS011;26233;51.894;10.192;2023-05-17T06:24:05;4.05;;;2.13;;
40533;SDS011;26233;51.894;10.192;2023-05-17T06:26:33;4.68;;;1.90;;
40533;SDS011;26233;51.894;10.192;2023-05-17T06:29:00;3.30;;;1.63;;
40533;SDS011;26233;51.894;10.192;2023-05-17T06:31:27;4.53;;;1.92;;
40533;SDS011;26233;51.894;10.192;2023-05-17T06:33:54;7.60;;;1.70;;
40533;SDS011;26233;51.894;10.192;2023-05-17T06:36:23;5.53;;;2.22;;
40533;SDS011;26233;51.894;10.192;2023-05-17T06:38:50;4.18;;;1.88;;
40533;SDS011;26233;51.894;10.192;2023-05-17T06:41:17;2.95;;;1.73;;
40533;SDS011;26233;51.894;10.192;2023-05-17T06:43:44;4.90;;;2.08;;
40533;SDS011;26233;51.894;10.192;2023-05-17T06:46:12;5.07;;;2.03;;
40533;SDS011;26233;51.894;10.192;2023-05-17T06:48:39;4.47;;;2.10;;
40533;SDS011;26233;51.894;10.192;2023-05-17T06:51:06;4.38;;;1.90;;
40533;SDS011;26233;51.894;10.192;2023-05-17T06:53:34;3.88;;;1.70;;
40533;SDS011;26233;51.894;10.192;2023-05-17T06:56:01;3.70;;;1.80;;
40533;SDS011;26233;51.894;10.192;2023-05-17T06:58:28;3.83;;;1.98;;
40533;SDS011;26233;51.894;10.192;2023-05-17T07:00:56;4.82;;;1.98;;
40533;SDS011;26233;51.894;10.192;2023-05-17T07:03:23;3.60;;;1.73;;
40533;SDS011;26233;51.894;10.192;2023-05-17T07:05:50;4.72;;;1.90;;
40533;SDS011;26233;51.894;10.192;2023-05-17T07:08:17;4.85;;;2.00;;
40533;SDS011;26233;51.894;10.192;2023-05-17T07:10:46;2.97;;;1.63;;
40533;SDS011;26233;51.894;10.192;2023-05-17T07:13:13;4.60;;;1.60;;
40533;SDS011;26233;51.894;10.192;2023-05-17T07:15:40;3.63;;;1.83;;
40533;SDS011;26233;51.894;10.192;2023-05-17T07:18:07;4.25;;;2.10;;
40533;SDS011;26233;51.894;10.192;2023-05-17T07:20:34;3.55;;;1.80;;
40533;SDS011;26233;51.894;10.192;2023-05-17T07:23:01;4.72;;;1.80;;
40533;SDS011;26233;51.894;10.192;2023-05-17T07:25:28;4.65;;;1.90;;
40533;SDS011;26233;51.894;10.192;2023-05-17T07:27:57;5.45;;;1.60;;
40533;SDS011;26233;51.894;10.192;2023-05-17T07:30:25;4.10;;;1.65;;
40533;SDS011;26233;51.894;10.192;2023-05-17T07:32:52;4.85;;;1.98;;
40533;SDS011;26233;51.894;10.192;2023-05-17T07:35:19;3.22;;;1.73;;
40533;SDS011;26233;51.894;10.192;2023-05-17T07:37:46;2.95;;;1.60;;
40533;SDS011;26233;51.894;10.192;2023-05-17T07:40:13;3.67;;;1.73;;
40533;SDS011;26233;51.894;10.192;2023-05-17T07:42:40;5.03;;;1.77;;
40533;SDS011;26233;51.894;10.192;2023-05-17T07:45:10;3.45;;;1.65;;
40533;SDS011;26233;51.894;10.192;2023-05-17T07:47:37;3.42;;;1.70;;
40533;SDS011;26233;51.894;10.192;2023-05-17T07:50:04;6.63;;;1.80;;
40533;SDS011;26233;51.894;10.192;2023-05-17T07:52:32;3.30;;;1.67;;
40533;SDS011;26233;51.894;10.192;2023-05-17T07:54:59;3.67;;;1.52;;
40533;SDS011;26233;51.894;10.192;2023-05-17T07:57:27;6.38;;;2.08;;
40533;SDS011;26233;51.894;10.192;2023-05-17T07:59:55;2.53;;;1.42;;
40533;SDS011;26233;51.894;10.192;2023-05-17T08:02:23;4.60;;;1.58;;
40533;SDS011;26233;51.894;10.192;2023-05-17T08:04:52;3.38;;;1.60;;
40533;SDS011;26233;51.894;10.192;2023-05-17T08:07:19;3.88;;;1.63;;
40533;SDS011;26233;51.894;10.192;2023-05-17T08:09:46;3.75;;;1.70;;
40533;SDS011;26233;51.894;10.192;2023-05-17T08:12:13;2.38;;;1.45;;
40533;SDS011;26233;51.894;10.192;2023-05-17T08:14:40;4.05;;;1.80;;
40533;SDS011;26233;51.894;10.192;2023-05-17T08:17:07;5.10;;;1.75;;
40533;SDS011;26233;51.894;10.192;2023-05-17T08:19:35;3.22;;;1.48;;
40533;SDS011;26233;51.894;10.192;2023-05-17T08:22:03;3.95;;;1.73;;
40533;SDS011;26233;51.894;10.192;2023-05-17T08:24:30;3.47;;;1.80;;
40533;SDS011;26233;51.894;10.192;2023-05-17T08:26:57;3.03;;;1.60;;
40533;SDS011;26233;51.894;10.192;2023-05-17T08:29:24;2.60;;;1.45;;
40533;SDS011;26233;51.894;10.192;2023-05-17T08:31:52;2.70;;;1.70;;
40533;SDS011;26233;51.894;10.192;2023-05-17T08:34:19;4.20;;;1.88;;
40533;SDS011;26233;51.894;10.192;2023-05-17T08:36:48;2.95;;;1.50;;
40533;SDS011;26233;51.894;10.192;2023-05-17T08:39:17;3.60;;;1.75;;
40533;SDS011;26233;51.894;10.192;2023-05-17T08:41:45;3.72;;;1.40;;
40533;SDS011;26233;51.894;10.192;2023-05-17T08:44:12;3.03;;;1.67;;
40533;SDS011;26233;51.894;10.192;2023-05-17T08:46:42;3.28;;;1.55;;
40533;SDS011;26233;51.894;10.192;2023-05-17T08:49:09;4.20;;;1.77;;
40533;SDS011;26233;51.894;10.192;2023-05-17T08:51:39;2.45;;;1.48;;
40533;SDS011;26233;51.894;10.192;2023-05-17T08:54:08;2.45;;;1.35;;
40533;SDS011;26233;51.894;10.192;2023-05-17T08:56:36;2.95;;;1.77;;
40533;SDS011;26233;51.894;10.192;2023-05-17T08:59:04;1.77;;;1.25;;
40533;SDS011;26233;51.894;10.192;2023-05-17T09:01:34;2.65;;;1.52;;
40533;SDS011;26233;51.894;10.192;2023-05-17T09:04:02;3.50;;;1.60;;
40533;SDS011;26233;51.894;10.192;2023-05-17T09:06:32;2.72;;;1.40;;
40533;SDS011;26233;51.894;10.192;2023-05-17T09:09:00;2.80;;;1.40;;
40533;SDS011;26233;51.894;10.192;2023-05-17T09:11:29;2.17;;;1.30;;
40533;SDS011;26233;51.894;10.192;2023-05-17T09:13:58;2.38;;;1.55;;
40533;SDS011;26233;51.894;10.192;2023-05-17T09:16:26;4.22;;;1.95;;
40533;SDS011;26233;51.894;10.192;2023-05-17T09:18:54;2.65;;;1.40;;
40533;SDS011;26233;51.894;10.192;2023-05-17T09:21:23;2.38;;;1.50;;
40533;SDS011;26233;51.894;10.192;2023-05-17T09:23:51;3.35;;;1.70;;
40533;SDS011;26233;51.894;10.192;2023-05-17T09:26:20;2.95;;;1.50;;
40533;SDS011;26233;51.894;10.192;2023-05-17T09:28:49;2.20;;;1.40;;
40533;SDS011;26233;51.894;10.192;2023-05-17T09:31:17;4.93;;;1.90;;
40533;SDS011;26233;51.894;10.192;2023-05-17T09:33:46;4.35;;;1.63;;
40533;SDS011;26233;51.894;10.192;2023-05-17T09:36:15;3.03;;;1.55;;
40533;SDS011;26233;51.894;10.192;2023-05-17T09:38:50;1.95;;;1.30;;
40533;SDS011;26233;51.894;10.192;2023-05-17T09:41:19;3.33;;;1.45;;
40533;SDS011;26233;51.894;10.192;2023-05-17T09:43:48;3.83;;;1.40;;
40533;SDS011;26233;51.894;10.192;2023-05-17T09:46:16;3.70;;;1.38;;
40533;SDS011;26233;51.894;10.192;2023-05-17T09:48:45;2.30;;;1.40;;
40533;SDS011;26233;51.894;10.192;2023-05-17T09:51:19;2.10;;;1.48;;
40533;SDS011;26233;51.894;10.192;2023-05-17T09:53:58;2.50;;;1.58;;
40533;SDS011;26233;51.894;10.192;2023-05-17T09:56:26;2.65;;;1.60;;
40533;SDS011;26233;51.894;10.192;2023-05-17T09:58:55;2.65;;;1.48;;
40533;SDS011;26233;51.894;10.192;2023-05-17T10:01:24;5.30;;;1.80;;
40533;SDS011;26233;51.894;10.192;2023-05-17T10:03:53;2.15;;;1.30;;
40533;SDS011;26233;51.894;10.192;2023-05-17T10:06:22;4.05;;;1.90;;
40533;SDS011;26233;51.894;10.192;2023-05-17T10:08:50;2.75;;;1.58;;
40533;SDS011;26233;51.894;10.192;2023-05-17T10:11:20;3.13;;;1.67;;
40533;SDS011;26233;51.894;10.192;2023-05-17T10:13:54;3.30;;;1.60;;
40533;SDS011;26233;51.894;10.192;2023-05-17T10:16:30;2.13;;;1.30;;
40533;SDS011;26233;51.894;10.192;2023-05-17T10:18:58;4.15;;;1.70;;
40533;SDS011;26233;51.894;10.192;2023-05-17T10:21:27;4.63;;;1.33;;
40533;SDS011;26233;51.894;10.192;2023-05-17T10:23:56;4.07;;;1.55;;
40533;SDS011;26233;51.894;10.192;2023-05-17T10:26:26;3.38;;;1.70;;
40533;SDS011;26233;51.894;10.192;2023-05-17T10:28:54;2.97;;;1.42;;
40533;SDS011;26233;51.894;10.192;2023-05-17T10:31:27;4.03;;;1.77;;
40533;SDS011;26233;51.894;10.192;2023-05-17T10:33:57;2.85;;;1.60;;
40533;SDS011;26233;51.894;10.192;2023-05-17T10:36:27;2.97;;;1.60;;
40533;SDS011;26233;51.894;10.192;2023-05-17T10:38:55;2.10;;;1.45;;
40533;SDS011;26233;51.894;10.192;2023-05-17T10:41:25;3.17;;;1.73;;
40533;SDS011;26233;51.894;10.192;2023-05-17T10:43:57;3.08;;;1.70;;
40533;SDS011;26233;51.894;10.192;2023-05-17T10:46:29;3.08;;;1.90;;
40533;SDS011;26233;51.894;10.192;2023-05-17T10:48:57;4.03;;;1.77;;
40533;SDS011;26233;51.894;10.192;2023-05-17T10:51:27;4.00;;;1.85;;
40533;SDS011;26233;51.894;10.192;2023-05-17T10:54:03;5.63;;;1.90;;
40533;SDS011;26233;51.894;10.192;2023-05-17T10:56:33;3.97;;;1.75;;
40533;SDS011;26233;51.894;10.192;2023-05-17T10:59:13;4.05;;;1.90;;
40533;SDS011;26233;51.894;10.192;2023-05-17T11:01:51;4.03;;;1.88;;
40533;SDS011;26233;51.894;10.192;2023-05-17T11:04:22;3.15;;;1.90;;
40533;SDS011;26233;51.894;10.192;2023-05-17T11:06:51;4.20;;;1.95;;
40533;SDS011;26233;51.894;10.192;2023-05-17T11:09:21;4.85;;;1.95;;
40533;SDS011;26233;51.894;10.192;2023-05-17T11:12:04;2.50;;;1.67;;
40533;SDS011;26233;51.894;10.192;2023-05-17T11:14:45;4.63;;;1.98;;
40533;SDS011;26233;51.894;10.192;2023-05-17T11:17:19;3.03;;;1.85;;
40533;SDS011;26233;51.894;10.192;2023-05-17T11:19:55;3.25;;;1.90;;
40533;SDS011;26233;51.894;10.192;2023-05-17T11:22:56;4.15;;;1.83;;
40533;SDS011;26233;51.894;10.192;2023-05-17T11:25:26;5.28;;;1.98;;
40533;SDS011;26233;51.894;10.192;2023-05-17T11:27:56;3.60;;;1.67;;
40533;SDS011;26233;51.894;10.192;2023-05-17T11:30:25;4.15;;;1.90;;
40533;SDS011;26233;51.894;10.192;2023-05-17T11:32:58;3.35;;;1.80;;
40533;SDS011;26233;51.894;10.192;2023-05-17T11:35:28;3.53;;;1.80;;
40533;SDS011;26233;51.894;10.192;2023-05-17T11:38:11;3.53;;;1.90;;
40533;SDS011;26233;51.894;10.192;2023-05-17T11:40:40;3.55;;;1.80;;
40533;SDS011;26233;51.894;10.192;2023-05-17T11:43:09;3.25;;;1.83;;
40533;SDS011;26233;51.894;10.192;2023-05-17T11:45:42;3.78;;;1.80;;
40533;SDS011;26233;51.894;10.192;2023-05-17T11:48:15;3.97;;;1.50;;
40533;SDS011;26233;51.894;10.192;2023-05-17T11:50:44;4.75;;;1.70;;
40533;SDS011;26233;51.894;10.192;2023-05-17T11:53:14;3.85;;;1.83;;
40533;SDS011;26233;51.894;10.192;2023-05-17T11:55:42;4.82;;;1.67;;
40533;SDS011;26233;51.894;10.192;2023-05-17T11:58:12;2.67;;;1.70;;
40533;SDS011;26233;51.894;10.192;2023-05-17T12:00:41;4.38;;;1.77;;
40533;SDS011;26233;51.894;10.192;2023-05-17T12:03:17;3.70;;;1.70;;
40533;SDS011;26233;51.894;10.192;2023-05-17T12:05:48;4.22;;;2.20;;
40533;SDS011;26233;51.894;10.192;2023-05-17T12:08:19;2.63;;;1.60;;
40533;SDS011;26233;51.894;10.192;2023-05-17T12:10:47;2.92;;;1.60;;
40533;SDS011;26233;51.894;10.192;2023-05-17T12:13:16;3.75;;;1.50;;
40533;SDS011;26233;51.894;10.192;2023-05-17T12:15:45;4.60;;;2.05;;
40533;SDS011;26233;51.894;10.192;2023-05-17T12:18:21;2.45;;;1.55;;
40533;SDS011;26233;51.894;10.192;2023-05-17T12:20:56;4.13;;;2.10;;
40533;SDS011;26233;51.894;10.192;2023-05-17T12:23:27;3.00;;;1.58;;
40533;SDS011;26233;51.894;10.192;2023-05-17T12:26:05;3.00;;;1.70;;
40533;SDS011;26233;51.894;10.192;2023-05-17T12:28:34;3.13;;;1.70;;
40533;SDS011;26233;51.894;10.192;2023-05-17T12:31:03;3.13;;;1.77;;
40533;SDS011;26233;51.894;10.192;2023-05-17T12:33:36;4.28;;;1.60;;
40533;SDS011;26233;51.894;10.192;2023-05-17T12:36:06;2.22;;;1.70;;
40533;SDS011;26233;51.894;10.192;2023-05-17T12:38:35;2.53;;;1.67;;
40533;SDS011;26233;51.894;10.192;2023-05-17T12:41:05;3.70;;;1.83;;
40533;SDS011;26233;51.894;10.192;2023-05-17T12:43:34;2.38;;;1.70;;
40533;SDS011;26233;51.894;10.192;2023-05-17T12:46:04;3.47;;;2.00;;
40533;SDS011;26233;51.894;10.192;2023-05-17T12:48:33;3.47;;;2.05;;
40533;SDS011;26233;51.894;10.192;2023-05-17T12:51:04;3.28;;;1.58;;
40533;SDS011;26233;51.894;10.192;2023-05-17T12:53:34;3.60;;;1.77;;
40533;SDS011;26233;51.894;10.192;2023-05-17T12:56:05;3.53;;;1.90;;
40533;SDS011;26233;51.894;10.192;2023-05-17T12:58:33;3.30;;;2.00;;
40533;SDS011;26233;51.894;10.192;2023-05-17T13:01:00;5.35;;;2.00;;
40533;SDS011;26233;51.894;10.192;2023-05-17T13:03:31;3.75;;;2.03;;
40533;SDS011;26233;51.894;10.192;2023-05-17T13:05:59;3.45;;;1.90;;
40533;SDS011;26233;51.894;10.192;2023-05-17T13:08:30;3.42;;;1.88;;
40533;SDS011;26233;51.894;10.192;2023-05-17T13:11:07;3.13;;;1.67;;
40533;SDS011;26233;51.894;10.192;2023-05-17T13:13:36;3.88;;;1.92;;
40533;SDS011;26233;51.894;10.192;2023-05-17T13:16:04;5.00;;;2.20;;
40533;SDS011;26233;51.894;10.192;2023-05-17T13:18:47;4.15;;;1.85;;
40533;SDS011;26233;51.894;10.192;2023-05-17T13:21:16;3.28;;;1.80;;
40533;SDS011;26233;51.894;10.192;2023-05-17T13:23:47;3.50;;;1.58;;
40533;SDS011;26233;51.894;10.192;2023-05-17T13:26:15;3.40;;;2.00;;
40533;SDS011;26233;51.894;10.192;2023-05-17T13:28:43;3.35;;;1.80;;
40533;SDS011;26233;51.894;10.192;2023-05-17T13:31:11;2.25;;;1.65;;
40533;SDS011;26233;51.894;10.192;2023-05-17T13:33:38;3.00;;;1.63;;
40533;SDS011;26233;51.894;10.192;2023-05-17T13:36:05;3.13;;;1.63;;
40533;SDS011;26233;51.894;10.192;2023-05-17T13:38:32;3.60;;;2.22;;
40533;SDS011;26233;51.894;10.192;2023-05-17T13:41:00;3.00;;;1.73;;
40533;SDS011;26233;51.894;10.192;2023-05-17T13:43:28;3.60;;;2.35;;
40533;SDS011;26233;51.894;10.192;2023-05-17T13:45:55;2.83;;;1.67;;
40533;SDS011;26233;51.894;10.192;2023-05-17T13:48:23;3.53;;;1.90;;
40533;SDS011;26233;51.894;10.192;2023-05-17T13:50:50;3.38;;;1.73;;
40533;SDS011;26233;51.894;10.192;2023-05-17T13:53:17;6.22;;;2.10;;
40533;SDS011;26233;51.894;10.192;2023-05-17T13:55:44;3.03;;;1.75;;
40533;SDS011;26233;51.894;10.192;2023-05-17T13:58:13;2.38;;;1.75;;
40533;SDS011;26233;51.894;10.192;2023-05-17T14:00:41;3.50;;;1.85;;
40533;SDS011;26233;51.894;10.192;2023-05-17T14:03:09;2.75;;;1.67;;
40533;SDS011;26233;51.894;10.192;2023-05-17T14:05:37;3.33;;;1.70;;
40533;SDS011;26233;51.894;10.192;2023-05-17T14:08:05;3.85;;;1.88;;
40533;SDS011;26233;51.894;10.192;2023-05-17T14:10:32;3.40;;;2.00;;
40533;SDS011;26233;51.894;10.192;2023-05-17T14:13:00;2.72;;;1.83;;
40533;SDS011;26233;51.894;10.192;2023-05-17T14:15:28;2.75;;;1.63;;
40533;SDS011;26233;51.894;10.192;2023-05-17T14:18:01;2.25;;;1.67;;
40533;SDS011;26233;51.894;10.192;2023-05-17T14:20:29;2.97;;;2.10;;
40533;SDS011;26233;51.894;10.192;2023-05-17T14:22:56;6.43;;;2.25;;
40533;SDS011;26233;51.894;10.192;2023-05-17T14:25:23;4.57;;;1.70;;
40533;SDS011;26233;51.894;10.192;2023-05-17T14:27:51;2.80;;;1.60;;
40533;SDS011;26233;51.894;10.192;2023-05-17T14:30:18;3.40;;;1.73;;
40533;SDS011;26233;51.894;10.192;2023-05-17T14:32:47;2.47;;;1.40;;
40533;SDS011;26233;51.894;10.192;2023-05-17T14:35:14;3.88;;;1.83;;
40533;SDS011;26233;51.894;10.192;2023-05-17T14:37:42;3.08;;;1.80;;
40533;SDS011;26233;51.894;10.192;2023-05-17T14:40:09;2.85;;;1.90;;
40533;SDS011;26233;51.894;10.192;2023-05-17T14:42:37;2.30;;;1.42;;
40533;SDS011;26233;51.894;10.192;2023-05-17T14:45:05;2.35;;;1.60;;